createdAt,value
2017-06-25T00:00:18.630Z,100501.39
2017-06-25T00:02:57.464Z,100495.93
2017-06-25T00:05:36.634Z,100496.62
2017-06-25T00:08:09.930Z,100490.16
2017-06-25T00:10:42.486Z,100488.31
2017-06-25T00:16:19.230Z,100481.81
2017-06-25T00:18:52.938Z,100475.50
2017-06-25T00:21:27.529Z,100472.81
2017-06-25T01:12:48.650Z,100451.22
2017-06-25T01:15:15.261Z,100447.19
2017-06-25T01:17:41.675Z,100441.56
2017-06-25T01:20:08.026Z,100437.45
2017-06-25T01:22:34.388Z,100436.97
2017-06-25T01:25:00.784Z,100436.74
2017-06-25T01:27:27.122Z,100429.77
2017-06-25T01:29:53.456Z,100431.67
2017-06-25T01:32:19.906Z,100431.13
2017-06-25T01:34:48.062Z,100427.75
2017-06-25T01:37:14.527Z,100434.00
2017-06-25T01:39:40.888Z,100434.27
2017-06-25T01:42:07.347Z,100428.28
2017-06-25T01:44:33.723Z,100425.23
2017-06-25T01:47:00.088Z,100430.92
2017-06-25T01:49:26.520Z,100429.77
2017-06-25T01:51:52.933Z,100427.17
2017-06-25T01:54:19.345Z,100425.26
2017-06-25T01:56:45.738Z,100426.17
2017-06-25T01:59:12.054Z,100424.63
2017-06-25T02:01:38.398Z,100419.02
2017-06-25T02:04:04.736Z,100416.20
2017-06-25T02:06:31.145Z,100426.81
2017-06-25T02:08:58.000Z,100429.28
2017-06-25T02:11:30.393Z,100419.48
2017-06-25T02:13:56.802Z,100421.54
2017-06-25T02:19:29.774Z,100413.91
2017-06-25T02:21:56.105Z,100412.47
2017-06-25T02:24:22.422Z,100418.50
2017-06-25T02:26:48.760Z,100414.13
2017-06-25T02:29:15.684Z,100417.16
2017-06-25T02:31:42.060Z,100416.46
2017-06-25T02:34:08.500Z,100414.13
2017-06-25T02:36:35.257Z,100423.79
2017-06-25T02:39:01.665Z,100419.48
2017-06-25T02:41:28.004Z,100417.52
2017-06-25T02:43:54.348Z,100415.75
2017-06-25T02:46:20.689Z,100409.06
2017-06-25T02:48:47.032Z,100408.61
2017-06-25T02:51:13.431Z,100413.29
2017-06-25T02:53:39.726Z,100402.27
2017-06-25T02:56:06.067Z,100406.19
2017-06-25T02:58:32.393Z,100398.12
2017-06-25T03:00:58.761Z,100396.79
2017-06-25T03:03:25.105Z,100397.13
2017-06-25T03:05:51.506Z,100397.48
2017-06-25T03:08:17.855Z,100393.41
2017-06-25T03:10:44.210Z,100396.98
2017-06-25T03:13:10.606Z,100391.62
2017-06-25T03:15:37.045Z,100398.27
2017-06-25T03:18:03.439Z,100382.67
2017-06-25T03:20:29.738Z,100387.50
2017-06-25T03:22:56.072Z,100379.42
2017-06-25T03:25:22.392Z,100380.91
2017-06-25T03:27:48.707Z,100383.27
2017-06-25T03:30:15.059Z,100384.72
2017-06-25T03:32:41.412Z,100385.78
2017-06-25T03:35:07.752Z,100382.69
2017-06-25T03:37:34.132Z,100376.33
2017-06-25T03:40:00.454Z,100376.11
2017-06-25T03:42:26.780Z,100385.48
2017-06-25T03:44:53.109Z,100381.19
2017-06-25T03:47:19.505Z,100379.14
2017-06-25T03:49:45.850Z,100377.17
2017-06-25T03:52:12.185Z,100375.08
2017-06-25T03:54:38.546Z,100382.33
2017-06-25T03:57:04.952Z,100377.31
2017-06-25T03:59:31.246Z,100378.44
2017-06-25T04:01:57.563Z,100380.56
2017-06-25T04:04:23.891Z,100375.21
2017-06-25T04:06:50.231Z,100374.21
2017-06-25T04:09:16.585Z,100370.78
2017-06-25T04:11:42.928Z,100368.43
2017-06-25T04:14:09.267Z,100369.88
2017-06-25T04:16:35.608Z,100360.56
2017-06-25T04:19:01.974Z,100364.35
2017-06-25T04:21:28.282Z,100367.17
2017-06-25T04:23:54.652Z,100365.34
2017-06-25T04:26:20.976Z,100370.26
2017-06-25T04:28:47.310Z,100361.55
2017-06-25T04:31:13.635Z,100354.86
2017-06-25T04:33:39.975Z,100353.14
2017-06-25T04:36:06.308Z,100352.80
2017-06-25T04:41:05.745Z,100354.02
2017-06-25T04:43:32.168Z,100355.97
2017-06-25T04:45:58.499Z,100354.57
2017-06-25T04:48:24.816Z,100352.66
2017-06-25T04:50:51.173Z,100354.86
2017-06-25T04:53:17.507Z,100355.08
2017-06-25T04:55:43.880Z,100351.45
2017-06-25T04:58:10.193Z,100352.79
2017-06-25T05:00:36.549Z,100351.83
2017-06-25T05:03:02.880Z,100355.19
2017-06-25T05:05:29.186Z,100350.20
2017-06-25T05:07:55.543Z,100351.77
2017-06-25T05:10:21.875Z,100352.59
2017-06-25T05:12:48.206Z,100363.37
2017-06-25T05:15:14.560Z,100365.97
2017-06-25T11:57:24.739Z,100475.34
2017-06-25T12:05:21.925Z,100475.59
2017-06-25T12:07:48.476Z,100473.30
2017-06-25T12:10:16.351Z,100470.22
2017-06-25T12:12:42.797Z,100475.49
2017-06-25T12:15:10.614Z,100465.16
2017-06-25T12:17:37.382Z,100466.23
2017-06-25T12:32:21.958Z,100475.45
2017-06-25T12:34:48.787Z,100472.67
2017-06-25T12:37:15.114Z,100468.54
2017-06-25T12:39:41.477Z,100480.08
2017-06-25T12:42:09.092Z,100484.25
2017-06-25T12:44:35.484Z,100487.02
2017-06-25T12:47:01.832Z,100484.69
2017-06-25T12:49:28.166Z,100495.09
2017-06-25T12:51:54.537Z,100497.42
2017-06-25T12:54:20.874Z,100491.27
2017-06-25T12:56:47.240Z,100497.49
2017-06-25T12:59:13.594Z,100502.44
2017-06-25T13:01:39.959Z,100499.50
2017-06-25T13:04:06.316Z,100498.43
2017-06-25T13:06:32.681Z,100499.91
2017-06-25T13:08:59.027Z,100494.50
2017-06-25T13:11:25.373Z,100510.59
2017-06-25T13:13:51.733Z,100511.45
2017-06-25T13:16:18.093Z,100515.97
2017-06-25T13:18:44.468Z,100513.14
2017-06-25T13:21:10.819Z,100513.89
2017-06-25T13:29:22.597Z,100497.13
2017-06-25T13:31:48.911Z,100500.75
2017-06-25T13:34:15.254Z,100498.94
2017-06-25T13:36:41.550Z,100501.75
2017-06-25T13:39:07.898Z,100501.05
2017-06-25T13:41:34.223Z,100503.69
2017-06-25T13:44:00.554Z,100512.61
2017-06-25T13:46:26.855Z,100509.53
2017-06-25T13:48:53.238Z,100519.78
2017-06-25T13:51:19.793Z,100519.45
2017-06-25T13:53:46.130Z,100514.65
2017-06-25T13:56:12.433Z,100518.23
2017-06-25T13:58:38.747Z,100515.97
2017-06-25T14:01:05.085Z,100508.69
2017-06-25T14:03:31.416Z,100511.98
2017-06-25T14:05:57.790Z,100507.64
2017-06-25T14:08:24.109Z,100503.20
2017-06-25T14:10:51.571Z,100508.80
2017-06-25T14:13:18.087Z,100501.50
2017-06-25T14:15:44.446Z,100508.16
2017-06-25T14:18:10.792Z,100503.66
2017-06-25T14:20:37.089Z,100503.33
2017-06-25T14:23:03.418Z,100504.94
2017-06-25T14:25:29.771Z,100510.31
2017-06-25T14:27:56.103Z,100513.44
2017-06-25T14:30:22.413Z,100519.08
2017-06-25T14:32:48.770Z,100516.92
2017-06-25T14:35:15.141Z,100517.52
2017-06-25T14:37:41.475Z,100509.19
2017-06-25T14:40:07.807Z,100516.92
2017-06-25T14:42:34.103Z,100514.73
2017-06-25T14:45:00.450Z,100512.73
2017-06-25T14:47:26.781Z,100513.22
2017-06-25T14:49:53.098Z,100510.59
2017-06-25T14:52:19.472Z,100518.11
2017-06-25T14:54:45.833Z,100517.25
2017-06-25T14:57:12.165Z,100523.01
2017-06-25T14:59:38.667Z,100517.05
2017-06-25T15:02:05.065Z,100523.61
2017-06-25T15:04:32.347Z,100513.92
2017-06-25T15:06:59.297Z,100522.80
2017-06-25T15:09:25.639Z,100514.20
2017-06-25T15:11:52.019Z,100509.25
2017-06-25T15:14:18.427Z,100502.11
2017-06-25T15:16:44.747Z,100510.26
2017-06-25T15:19:11.084Z,100506.58
2017-06-25T15:21:37.414Z,100503.91
2017-06-25T15:24:04.202Z,100502.34
2017-06-25T15:26:30.522Z,100498.69
2017-06-25T15:28:56.869Z,100500.36
2017-06-25T15:31:23.294Z,100500.77
2017-06-25T15:33:49.602Z,100498.42
2017-06-25T15:36:15.928Z,100505.41
2017-06-25T15:38:42.244Z,100499.21
2017-06-25T15:41:08.574Z,100492.28
2017-06-25T15:43:34.886Z,100497.69
2017-06-25T15:46:01.243Z,100498.12
2017-06-25T15:48:27.596Z,100492.84
2017-06-25T15:50:53.935Z,100493.72
2017-06-25T15:53:20.274Z,100488.03
2017-06-25T15:55:46.640Z,100483.96
2017-06-25T15:58:12.979Z,100482.78
2017-06-25T16:00:39.341Z,100472.67
2017-06-25T16:03:05.680Z,100464.66
2017-06-25T16:05:32.037Z,100463.63
2017-06-25T16:07:58.394Z,100458.27
2017-06-25T16:10:24.756Z,100461.97
2017-06-25T16:12:51.086Z,100459.97
2017-06-25T16:15:17.400Z,100459.64
2017-06-25T16:17:43.739Z,100453.43
2017-06-25T16:20:10.113Z,100455.69
2017-06-25T16:22:36.523Z,100457.29
2017-06-25T16:25:02.847Z,100445.19
2017-06-25T16:27:29.176Z,100450.24
2017-06-25T16:29:55.517Z,100448.84
2017-06-25T16:32:21.881Z,100437.72
2017-06-25T16:34:48.221Z,100449.16
2017-06-25T16:37:14.593Z,100436.85
2017-06-25T16:39:40.908Z,100439.72
2017-06-25T16:42:07.229Z,100449.11
2017-06-25T16:44:33.563Z,100445.19
2017-06-25T16:46:59.886Z,100447.79
2017-06-25T16:49:26.237Z,100439.57
2017-06-25T16:51:52.546Z,100441.26
2017-06-25T16:54:18.895Z,100435.20
2017-06-25T16:56:45.275Z,100436.75
2017-06-25T16:59:11.640Z,100435.33
2017-06-25T17:01:38.000Z,100428.76
2017-06-25T17:04:04.332Z,100429.70
2017-06-25T17:06:30.713Z,100426.48
2017-06-25T17:08:57.091Z,100434.58
2017-06-25T17:11:24.399Z,100424.89
2017-06-25T17:13:50.773Z,100428.84
2017-06-25T17:16:17.630Z,100423.38
2017-06-25T17:18:50.525Z,100417.92
2017-06-25T17:21:20.687Z,100421.84
2017-06-25T17:23:47.353Z,100421.16
2017-06-25T17:26:18.939Z,100419.52
2017-06-25T17:28:45.380Z,100413.02
2017-06-25T17:31:13.123Z,100410.43
2017-06-25T17:33:39.547Z,100411.11
2017-06-25T17:36:06.539Z,100406.78
2017-06-25T17:38:35.389Z,100402.30
2017-06-25T17:41:07.177Z,100405.39
2017-06-25T17:43:35.577Z,100406.67
2017-06-25T17:46:04.228Z,100408.05
2017-06-25T17:48:35.856Z,100401.45
2017-06-25T17:51:03.089Z,100396.29
2017-06-25T17:53:34.980Z,100398.49
2017-06-25T17:56:01.342Z,100409.55
2017-06-25T17:58:28.680Z,100406.70
2017-06-25T18:01:00.874Z,100405.31
2017-06-25T18:03:28.042Z,100412.59
2017-06-25T18:05:55.459Z,100409.99
2017-06-25T18:08:22.347Z,100405.02
2017-06-25T18:10:54.866Z,100406.13
2017-06-25T18:13:22.324Z,100396.68
2017-06-25T18:15:49.420Z,100400.67
2017-06-25T18:18:21.813Z,100399.46
2017-06-25T18:20:53.972Z,100392.63
2017-06-25T18:23:21.728Z,100386.65
2017-06-25T18:25:48.838Z,100395.17
2017-06-25T18:28:27.074Z,100396.19
2017-06-25T18:30:53.949Z,100390.66
2017-06-25T18:33:28.389Z,100388.32
2017-06-25T18:35:54.867Z,100387.71
2017-06-25T18:38:22.023Z,100386.46
2017-06-25T18:40:50.082Z,100388.16
2017-06-25T18:43:23.712Z,100383.58
2017-06-25T18:45:52.886Z,100384.50
2017-06-25T18:48:25.465Z,100381.64
2017-06-25T18:50:52.246Z,100385.81
2017-06-25T18:53:20.113Z,100381.69
2017-06-25T18:55:53.366Z,100385.31
2017-06-25T18:58:27.435Z,100384.89
2017-06-25T19:00:55.934Z,100384.47
2017-06-25T19:03:23.934Z,100391.52
2017-06-25T19:05:52.648Z,100384.91
2017-06-25T19:08:22.377Z,100383.58
2017-06-25T19:10:55.547Z,100384.50
2017-06-25T19:13:26.757Z,100375.02
2017-06-25T19:15:54.042Z,100381.61
2017-06-25T19:18:22.406Z,100384.53
2017-06-25T19:20:50.378Z,100381.52
2017-06-25T19:23:18.152Z,100389.91
2017-06-25T19:25:46.147Z,100377.02
2017-06-25T19:28:14.147Z,100384.92
2017-06-25T19:30:42.696Z,100391.12
2017-06-25T19:33:16.790Z,100390.30
2017-06-25T19:35:45.020Z,100388.95
2017-06-25T19:38:14.149Z,100394.92
2017-06-25T19:40:41.391Z,100389.55
2017-06-25T19:43:09.982Z,100393.68
2017-06-25T19:45:43.670Z,100393.78
2017-06-25T19:48:11.381Z,100384.52
2017-06-25T19:50:38.941Z,100396.27
2017-06-25T19:53:07.985Z,100401.46
2017-06-25T19:55:35.530Z,100404.34
2017-06-25T19:58:03.401Z,100402.64
2017-06-25T20:00:32.095Z,100410.55
2017-06-25T20:03:01.170Z,100407.22
2017-06-25T20:05:31.378Z,100405.33
2017-06-25T20:08:01.998Z,100411.95
2017-06-25T20:10:28.360Z,100413.72
2017-06-25T20:12:55.301Z,100414.16
2017-06-25T20:15:22.623Z,100414.55
2017-06-25T20:17:54.308Z,100416.25
2017-06-25T20:20:21.627Z,100416.70
2017-06-25T20:22:48.024Z,100419.81
2017-06-25T20:25:14.979Z,100423.48
2017-06-25T20:27:42.741Z,100430.51
2017-06-25T20:30:11.077Z,100432.45
2017-06-25T20:32:38.771Z,100430.78
2017-06-25T20:35:06.231Z,100427.08
2017-06-25T20:37:33.618Z,100432.88
2017-06-25T20:40:01.400Z,100442.70
2017-06-25T20:42:28.929Z,100436.80
2017-06-25T20:44:55.868Z,100435.88
2017-06-25T20:47:23.539Z,100436.75
2017-06-25T20:49:51.349Z,100442.92
2017-06-25T20:52:18.230Z,100439.65
2017-06-25T20:54:45.094Z,100437.31
2017-06-25T20:57:12.038Z,100440.77
2017-06-25T20:59:39.278Z,100440.98
2017-06-25T21:02:11.174Z,100438.03
2017-06-25T21:04:37.520Z,100427.19
2017-06-25T21:07:07.403Z,100422.02
2017-06-25T21:09:33.963Z,100429.61
2017-06-25T21:12:00.324Z,100430.50
2017-06-25T21:14:26.841Z,100425.31
2017-06-25T21:16:55.075Z,100433.70
2017-06-25T21:19:22.424Z,100430.09
2017-06-25T21:21:57.017Z,100427.94
2017-06-25T21:24:24.811Z,100426.26
2017-06-25T21:26:57.258Z,100432.61
2017-06-25T21:29:25.197Z,100435.03
2017-06-25T21:31:51.905Z,100431.69
2017-06-25T21:34:18.511Z,100440.80
2017-06-25T21:36:45.039Z,100431.52
2017-06-25T21:39:11.808Z,100440.28
2017-06-25T21:41:43.438Z,100446.01
2017-06-25T21:44:09.867Z,100438.06
2017-06-25T21:46:41.367Z,100444.94
2017-06-25T21:49:07.870Z,100456.34
2017-06-25T21:51:39.413Z,100456.07
2017-06-25T21:54:06.281Z,100456.40
2017-06-25T21:56:39.511Z,100457.31
2017-06-25T21:59:06.539Z,100457.93
2017-06-25T22:01:34.046Z,100454.94
2017-06-25T22:04:00.546Z,100460.61
2017-06-25T22:06:27.983Z,100455.26
2017-06-25T22:08:54.630Z,100449.76
2017-06-25T22:11:21.437Z,100455.34
2017-06-25T22:13:48.127Z,100453.97
2017-06-25T22:16:14.605Z,100461.03
2017-06-25T22:18:41.426Z,100453.23
2017-06-25T22:21:09.347Z,100450.13
2017-06-25T22:23:36.093Z,100451.78
2017-06-25T22:26:02.526Z,100449.67
2017-06-25T22:28:29.856Z,100451.86
2017-06-25T22:31:02.298Z,100449.96
2017-06-25T22:33:29.245Z,100449.81
2017-06-25T22:35:55.684Z,100447.22
2017-06-25T22:38:22.156Z,100442.30
2017-06-25T22:40:49.124Z,100451.27
2017-06-25T22:43:15.476Z,100436.83
2017-06-25T22:45:41.919Z,100438.68
2017-06-25T22:48:09.337Z,100441.09
2017-06-25T22:50:35.805Z,100442.89
2017-06-25T22:53:02.447Z,100440.64
2017-06-25T22:55:28.862Z,100436.66
2017-06-25T22:57:55.658Z,100438.19
2017-06-25T23:00:22.678Z,100439.65
2017-06-25T23:02:49.645Z,100435.02
2017-06-25T23:05:16.175Z,100435.30
2017-06-25T23:07:42.689Z,100437.94
2017-06-25T23:10:16.694Z,100439.67
2017-06-25T23:12:44.103Z,100439.52
2017-06-25T23:15:15.584Z,100447.97
2017-06-25T23:17:42.358Z,100443.39
2017-06-25T23:20:10.079Z,100443.05
2017-06-25T23:22:41.962Z,100446.72
2017-06-25T23:25:13.850Z,100438.95
2017-06-25T23:27:40.570Z,100444.51
2017-06-25T23:30:07.374Z,100437.31
2017-06-25T23:32:41.691Z,100427.72
2017-06-25T23:35:13.810Z,100429.68
2017-06-25T23:37:40.346Z,100428.27
2017-06-25T23:40:12.011Z,100429.84
2017-06-25T23:42:39.045Z,100427.99
2017-06-25T23:45:05.539Z,100426.73
2017-06-25T23:47:32.457Z,100424.98
2017-06-25T23:50:04.983Z,100417.47
2017-06-25T23:52:38.703Z,100412.16
2017-06-25T23:55:10.566Z,100409.61
2017-06-25T23:57:42.607Z,100413.08
